Time;durP1;ratioP1;P1;durP2;ratioP2;P2;SDS_P1;SDS_P2;PMS_P1;PMS_P2;Temp;Humidity;BMP_temperature;BMP_pressure;BME280_temperature;BME280_humidity;BME280_pressure;Samples;Min_cycle;Max_cycle;Signal;HPM_P1;HPM_P2
2022/11/27 00:02:29;;;;;;;0.20;0.10;;;10.60;99.90;;;;;;21287555;27;21059;-71
2022/11/27 00:12:34;;;;;;;0.20;0.03;;;10.70;99.90;;;;;;21286083;27;20462;-70
2022/11/27 00:22:38;;;;;;;0.20;0.00;;;10.80;99.90;;;;;;21306096;27;20408;-71
2022/11/27 00:32:43;;;;;;;0.20;0.00;;;10.60;99.90;;;;;;21303570;27;20397;-73
2022/11/27 00:42:48;;;;;;;0.20;0.10;;;10.50;99.90;;;;;;21285882;27;20429;-72
2022/11/27 00:53:02;;;;;;;0.20;0.10;;;10.60;99.90;;;;;;21221362;27;20457;-72
2022/11/27 01:03:08;;;;;;;0.20;0.10;;;10.70;99.90;;;;;;21131025;28;20419;-70
2022/11/27 01:13:13;;;;;;;0.20;0.00;;;10.70;99.90;;;;;;21131480;28;20488;-71
2022/11/27 01:23:17;;;;;;;0.20;0.10;;;10.90;99.90;;;;;;21111306;28;20419;-71
2022/11/27 01:33:23;;;;;;;0.20;0.10;;;10.80;99.90;;;;;;21111180;28;20430;-71
2022/11/27 01:43:38;;;;;;;0.20;0.10;;;10.60;99.90;;;;;;21108911;28;20416;-73
2022/11/27 01:53:44;;;;;;;0.20;0.10;;;10.50;99.90;;;;;;21127018;28;20392;-73
2022/11/27 02:03:51;;;;;;;0.20;0.10;;;10.50;99.90;;;;;;21128099;28;20424;-70
2022/11/27 02:14:03;;;;;;;0.20;0.10;;;10.50;99.90;;;;;;21107770;28;20384;-71
2022/11/27 02:24:26;;;;;;;0.20;0.07;;;10.60;99.90;;;;;;21108634;28;20420;-70
2022/11/27 02:34:36;;;;;;;0.20;0.10;;;10.50;99.90;;;;;;21106305;28;20381;-71
2022/11/27 02:44:45;;;;;;;0.20;0.10;;;10.70;99.90;;;;;;21123595;28;20411;-71
2022/11/27 02:54:53;;;;;;;0.20;0.00;;;10.50;99.90;;;;;;21140293;28;20403;-70
2022/11/27 03:05:01;;;;;;;0.20;0.10;;;10.50;99.90;;;;;;21154126;27;20400;-71
2022/11/27 03:15:09;;;;;;;0.20;0.10;;;10.50;99.90;;;;;;21311698;27;20464;-72
2022/11/27 03:25:14;;;;;;;0.20;0.10;;;10.60;99.90;;;;;;21311644;27;20416;-71
2022/11/27 03:35:23;;;;;;;0.20;0.10;;;10.60;99.90;;;;;;21291223;27;20384;-71
2022/11/27 03:45:32;;;;;;;0.20;0.03;;;10.50;99.90;;;;;;21308290;27;20415;-72
2022/11/27 03:55:46;;;;;;;0.20;0.10;;;10.50;99.90;;;;;;21199641;27;20635;-71
2022/11/27 04:05:50;;;;;;;0.20;0.10;;;10.50;99.90;;;;;;21115845;28;20405;-71
2022/11/27 04:15:55;;;;;;;0.20;0.10;;;10.30;99.90;;;;;;21117642;28;20920;-71
2022/11/27 04:26:00;;;;;;;0.20;0.10;;;10.40;99.90;;;;;;21116142;28;20423;-71
2022/11/27 04:36:06;;;;;;;0.20;0.07;;;10.20;99.90;;;;;;21115382;28;20508;-72
2022/11/27 04:46:10;;;;;;;0.20;0.10;;;10.00;99.90;;;;;;21134228;28;20408;-72
2022/11/27 04:56:16;;;;;;;0.20;0.10;;;10.10;99.90;;;;;;21113094;28;20389;-72
2022/11/27 05:06:21;;;;;;;0.20;0.10;;;10.10;99.90;;;;;;21132443;28;20648;-71
2022/11/27 05:16:27;;;;;;;0.20;0.00;;;10.10;99.90;;;;;;21110993;28;20392;-72
2022/11/27 05:26:31;;;;;;;0.20;0.10;;;10.10;99.90;;;;;;21114108;28;20694;-70
2022/11/27 05:36:36;;;;;;;0.20;0.10;;;10.20;99.90;;;;;;21109448;28;20400;-70
2022/11/27 05:46:42;;;;;;;0.20;0.03;;;10.20;99.90;;;;;;21127669;28;20419;-70
2022/11/27 05:56:47;;;;;;;0.20;0.03;;;10.10;99.90;;;;;;21127202;28;20464;-71
2022/11/27 06:06:51;;;;;;;0.20;0.10;;;10.10;99.90;;;;;;21108547;28;20419;-70
2022/11/27 06:16:56;;;;;;;0.20;0.10;;;10.10;99.90;;;;;;21127550;28;20389;-70
2022/11/27 06:27:05;;;;;;;0.20;0.10;;;9.90;99.90;;;;;;21126348;28;20861;-71
2022/11/27 06:37:13;;;;;;;0.20;0.10;;;10.10;99.90;;;;;;21092993;28;20427;-71
2022/11/27 06:47:16;;;;;;;0.20;0.00;;;10.10;99.90;;;;;;21125911;28;20412;-72
2022/11/27 06:57:21;;;;;;;0.20;0.10;;;9.70;99.90;;;;;;21107073;28;20393;-72
2022/11/27 07:07:25;;;;;;;0.20;0.10;;;9.60;99.90;;;;;;21124664;28;20419;-71
2022/11/27 07:17:31;;;;;;;0.20;0.10;;;9.60;99.90;;;;;;21106304;28;20396;-72
2022/11/27 07:27:35;;;;;;;0.20;0.10;;;9.70;99.90;;;;;;21106739;28;20408;-73
2022/11/27 07:37:40;;;;;;;0.20;0.10;;;9.80;99.90;;;;;;21131130;28;20454;-73
2022/11/27 07:47:43;;;;;;;0.20;0.00;;;10.00;99.90;;;;;;21138871;28;20396;-73
2022/11/27 07:57:49;;;;;;;0.20;0.10;;;10.30;99.90;;;;;;21136680;28;20419;-72
2022/11/27 08:07:53;;;;;;;0.20;0.10;;;10.60;99.90;;;;;;21136083;28;20423;-69
2022/11/27 08:18:01;;;;;;;0.20;0.00;;;10.80;99.90;;;;;;21116015;28;20411;-71
2022/11/27 08:28:05;;;;;;;0.20;0.00;;;11.10;99.90;;;;;;21099559;28;20492;-71
2022/11/27 08:38:10;;;;;;;0.20;0.00;;;11.60;99.90;;;;;;21133058;28;20403;-71
2022/11/27 08:48:14;;;;;;;0.20;0.10;;;12.10;99.90;;;;;;21133605;28;20422;-70
2022/11/27 08:58:21;;;;;;;0.20;0.10;;;13.00;99.90;;;;;;21189979;27;20381;-72
2022/11/27 09:08:25;;;;;;;0.20;0.10;;;13.30;99.90;;;;;;21301495;27;20412;-70
2022/11/27 09:18:33;;;;;;;0.20;0.07;;;13.20;99.90;;;;;;21299668;27;20461;-70
2022/11/27 09:28:38;;;;;;;0.20;0.10;;;13.20;99.90;;;;;;21279221;27;20796;-71
2022/11/27 09:38:43;;;;;;;0.20;0.10;;;13.90;99.90;;;;;;21282577;27;20393;-70
2022/11/27 09:48:50;;;;;;;0.20;0.10;;;14.60;99.90;;;;;;21271377;27;20410;-71
2022/11/27 09:58:59;;;;;;;0.20;0.10;;;15.70;99.90;;;;;;21127574;28;20700;-74
2022/11/27 10:09:13;;;;;;;0.20;0.10;;;16.70;99.90;;;;;;21090898;28;20411;-71
2022/11/27 10:19:29;;;;;;;0.20;0.10;;;16.40;99.90;;;;;;21105654;28;20388;-72
2022/11/27 10:29:36;;;;;;;0.20;0.10;;;16.80;99.90;;;;;;21104418;28;20442;-70
2022/11/27 10:39:49;;;;;;;0.20;0.10;;;17.20;99.90;;;;;;21104379;28;20432;-74
2022/11/27 10:49:53;;;;;;;0.20;0.10;;;17.60;99.90;;;;;;21105254;28;20428;-73
2022/11/27 11:00:06;;;;;;;0.20;0.10;;;18.20;99.90;;;;;;21117552;28;20404;-75
2022/11/27 11:10:26;;;;;;;0.20;0.00;;;18.00;99.90;;;;;;21107817;28;20408;-75
2022/11/27 11:20:31;;;;;;;0.20;0.10;;;18.60;99.90;;;;;;21138408;28;20451;-73
2022/11/27 11:30:38;;;;;;;0.20;0.10;;;18.20;99.90;;;;;;21117651;28;20411;-73
2022/11/27 11:41:03;;;;;;;0.20;0.00;;;18.80;99.90;;;;;;21116089;28;20483;-74
2022/11/27 11:51:12;;;;;;;0.20;0.10;;;18.90;99.90;;;;;;21133354;28;20396;-72
2022/11/27 12:01:36;;;;;;;0.20;0.10;;;18.90;99.90;;;;;;21134628;28;20415;-74
2022/11/27 12:11:47;;;;;;;0.20;0.10;;;18.90;99.90;;;;;;21114502;28;20405;-75
2022/11/27 12:22:05;;;;;;;0.20;0.10;;;18.90;99.90;;;;;;21131252;28;20415;-73
2022/11/27 12:32:30;;;;;;;0.20;0.10;;;19.20;99.90;;;;;;21113282;28;20400;-74
2022/11/27 12:42:40;;;;;;;0.20;0.10;;;18.70;99.90;;;;;;21131647;28;20400;-74
2022/11/27 12:52:47;;;;;;;0.20;0.10;;;18.20;99.90;;;;;;21111181;28;20630;-74
2022/11/27 13:03:02;;;;;;;0.20;0.10;;;18.10;99.90;;;;;;21110622;28;20404;-73
2022/11/27 13:13:10;;;;;;;0.20;0.10;;;18.40;99.90;;;;;;21129479;28;20805;-74
2022/11/27 13:23:16;;;;;;;0.20;0.10;;;18.00;99.90;;;;;;21111430;28;20415;-73
2022/11/27 13:33:36;;;;;;;0.20;0.10;;;17.90;99.90;;;;;;21126764;28;20414;-74
2022/11/27 13:43:44;;;;;;;0.20;0.10;;;18.10;99.90;;;;;;21128156;28;20420;-74
2022/11/27 13:53:47;;;;;;;0.20;0.10;;;18.10;99.90;;;;;;21125050;28;20404;-74
2022/11/27 17:56:23;;;;;;;0.20;0.10;;;13.60;99.90;;;;;;21103693;28;21735;-74
2022/11/27 18:06:27;;;;;;;0.20;0.10;;;13.70;99.90;;;;;;21199656;27;20402;-72
2022/11/27 18:16:35;;;;;;;0.20;0.00;;;13.70;99.90;;;;;;21275460;27;20416;-70
2022/11/27 18:26:38;;;;;;;0.20;0.10;;;13.40;99.90;;;;;;21273070;27;20404;-71
2022/11/27 18:37:04;;;;;;;0.20;0.10;;;13.30;99.90;;;;;;21249835;27;20389;-72
2022/11/27 18:47:08;;;;;;;0.20;0.10;;;13.20;99.90;;;;;;21274235;28;20626;-71
2022/11/27 18:57:18;;;;;;;0.20;0.10;;;13.20;99.90;;;;;;21153808;28;20465;-71
2022/11/27 19:07:23;;;;;;;0.20;0.00;;;13.00;99.90;;;;;;21180607;28;20412;-71
2022/11/27 19:17:29;;;;;;;0.20;0.10;;;12.80;99.90;;;;;;21272615;28;20385;-70
2022/11/27 19:27:35;;;;;;;0.20;0.08;;;12.80;99.90;;;;;;21290376;28;20511;-71
2022/11/27 19:37:40;;;;;;;0.20;0.03;;;12.80;99.90;;;;;;21288257;27;20396;-69
2022/11/27 19:47:44;;;;;;;0.20;0.10;;;12.80;99.90;;;;;;21234091;27;20407;-70
2022/11/27 19:57:49;;;;;;;0.20;0.10;;;13.20;99.90;;;;;;21149298;28;20737;-71
2022/11/27 20:07:53;;;;;;;0.20;0.10;;;13.40;99.90;;;;;;21138721;28;20413;-71
2022/11/27 20:17:58;;;;;;;0.20;0.00;;;13.60;99.90;;;;;;21120157;28;20411;-72
2022/11/27 20:28:02;;;;;;;0.20;0.10;;;13.70;99.90;;;;;;21245533;27;20403;-71
2022/11/27 20:38:07;;;;;;;0.20;0.10;;;14.00;99.90;;;;;;21229621;27;20393;-72
2022/11/27 20:48:11;;;;;;;0.20;0.08;;;13.80;99.90;;;;;;21286330;27;20487;-73
2022/11/27 20:58:16;;;;;;;0.20;0.10;;;13.50;99.90;;;;;;21133524;28;20400;-72
2022/11/27 21:08:20;;;;;;;0.20;0.00;;;13.20;99.90;;;;;;21176020;27;20404;-71
2022/11/27 21:18:25;;;;;;;0.20;0.10;;;12.90;99.90;;;;;;21303778;27;20516;-71
2022/11/27 21:28:30;;;;;;;0.20;0.03;;;13.10;99.90;;;;;;21302176;27;20423;-71
2022/11/27 21:38:36;;;;;;;0.20;0.10;;;12.90;99.90;;;;;;21284682;27;20393;-71
2022/11/27 21:48:40;;;;;;;0.20;0.00;;;12.70;99.90;;;;;;21284549;27;20401;-70
2022/11/27 21:58:46;;;;;;;0.20;0.10;;;12.40;99.90;;;;;;21118335;28;20408;-71
2022/11/27 22:08:51;;;;;;;0.20;0.00;;;12.30;99.90;;;;;;21112277;28;20408;-71
2022/11/27 22:18:57;;;;;;;0.20;0.00;;;12.30;99.90;;;;;;21108355;28;20389;-70
2022/11/27 22:29:01;;;;;;;0.20;0.10;;;12.40;99.90;;;;;;21126414;28;20400;-71
2022/11/27 22:39:08;;;;;;;0.20;0.10;;;12.50;99.90;;;;;;21105516;28;20392;-71
2022/11/27 22:49:13;;;;;;;0.20;0.00;;;12.50;99.90;;;;;;21107694;28;20414;-72
2022/11/27 22:59:19;;;;;;;0.20;0.10;;;12.70;99.90;;;;;;21104470;28;20391;-72
2022/11/27 23:09:38;;;;;;;0.20;0.10;;;12.40;99.90;;;;;;21116995;28;20408;-70
2022/11/27 23:19:43;;;;;;;0.20;0.10;;;12.30;99.90;;;;;;21280150;27;20404;-70
2022/11/27 23:29:47;;;;;;;0.20;0.00;;;12.40;99.90;;;;;;21311230;27;20409;-71
2022/11/27 23:39:52;;;;;;;0.20;0.10;;;13.50;99.90;;;;;;21309474;27;20408;-71
2022/11/27 23:49:56;;;;;;;0.20;0.10;;;13.90;99.90;;;;;;21278109;27;20412;-71
